sensor_id;sensor_type;location;lat;lon;timestamp;temperature;humidity
70830;SHT30;58451;51.550;7.208;2023-02-05T00:00:08;6.52;82.23
70830;SHT30;58451;51.550;7.208;2023-02-05T00:01:41;6.53;82.18
70830;SHT30;58451;51.550;7.208;2023-02-05T00:03:13;6.55;82.15
70830;SHT30;58451;51.550;7.208;2023-02-05T00:04:45;6.55;82.17
70830;SHT30;58451;51.550;7.208;2023-02-05T00:06:16;6.57;82.18
70830;SHT30;58451;51.550;7.208;2023-02-05T00:07:48;6.58;82.20
70830;SHT30;58451;51.550;7.208;2023-02-05T00:09:21;6.57;82.20
70830;SHT30;58451;51.550;7.208;2023-02-05T00:10:52;6.60;82.25
70830;SHT30;58451;51.550;7.208;2023-02-05T00:12:25;6.60;82.18
70830;SHT30;58451;51.550;7.208;2023-02-05T00:13:56;6.62;82.03
70830;SHT30;58451;51.550;7.208;2023-02-05T00:15:29;6.62;82.03
70830;SHT30;58451;51.550;7.208;2023-02-05T00:17:02;6.63;82.17
70830;SHT30;58451;51.550;7.208;2023-02-05T00:18:34;6.61;82.25
70830;SHT30;58451;51.550;7.208;2023-02-05T00:20:06;6.61;82.35
70830;SHT30;58451;51.550;7.208;2023-02-05T00:21:39;6.60;82.30
70830;SHT30;58451;51.550;7.208;2023-02-05T00:23:11;6.58;82.25
70830;SHT30;58451;51.550;7.208;2023-02-05T00:24:42;6.62;82.27
70830;SHT30;58451;51.550;7.208;2023-02-05T00:26:14;6.62;82.23
70830;SHT30;58451;51.550;7.208;2023-02-05T00:27:47;6.63;82.15
70830;SHT30;58451;51.550;7.208;2023-02-05T00:29:19;6.65;82.17
70830;SHT30;58451;51.550;7.208;2023-02-05T00:30:54;6.64;82.23
70830;SHT30;58451;51.550;7.208;2023-02-05T00:32:25;6.66;82.17
70830;SHT30;58451;51.550;7.208;2023-02-05T00:33:57;6.65;82.18
70830;SHT30;58451;51.550;7.208;2023-02-05T00:35:29;6.65;82.23
70830;SHT30;58451;51.550;7.208;2023-02-05T00:37:02;6.65;82.27
70830;SHT30;58451;51.550;7.208;2023-02-05T00:38:34;6.65;82.25
70830;SHT30;58451;51.550;7.208;2023-02-05T00:40:06;6.67;82.25
70830;SHT30;58451;51.550;7.208;2023-02-05T00:41:39;6.68;82.22
70830;SHT30;58451;51.550;7.208;2023-02-05T00:43:11;6.69;82.15
70830;SHT30;58451;51.550;7.208;2023-02-05T00:44:42;6.70;82.15
70830;SHT30;58451;51.550;7.208;2023-02-05T00:46:14;6.72;82.13
70830;SHT30;58451;51.550;7.208;2023-02-05T00:47:46;6.72;82.07
70830;SHT30;58451;51.550;7.208;2023-02-05T00:49:18;6.73;82.05
70830;SHT30;58451;51.550;7.208;2023-02-05T00:50:50;6.73;82.12
70830;SHT30;58451;51.550;7.208;2023-02-05T00:52:23;6.74;82.15
70830;SHT30;58451;51.550;7.208;2023-02-05T00:53:55;6.75;82.22
70830;SHT30;58451;51.550;7.208;2023-02-05T00:55:26;6.76;82.22
70830;SHT30;58451;51.550;7.208;2023-02-05T00:56:58;6.77;82.22
70830;SHT30;58451;51.550;7.208;2023-02-05T00:58:30;6.79;82.18
70830;SHT30;58451;51.550;7.208;2023-02-05T01:00:02;6.80;82.15
70830;SHT30;58451;51.550;7.208;2023-02-05T01:01:34;6.80;82.22
70830;SHT30;58451;51.550;7.208;2023-02-05T01:03:06;6.80;82.17
70830;SHT30;58451;51.550;7.208;2023-02-05T01:04:38;6.83;82.15
70830;SHT30;58451;51.550;7.208;2023-02-05T01:06:10;6.84;82.17
70830;SHT30;58451;51.550;7.208;2023-02-05T01:07:42;6.84;82.17
70830;SHT30;58451;51.550;7.208;2023-02-05T01:09:14;6.86;82.17
70830;SHT30;58451;51.550;7.208;2023-02-05T01:10:46;6.87;82.15
70830;SHT30;58451;51.550;7.208;2023-02-05T01:12:20;6.90;82.18
70830;SHT30;58451;51.550;7.208;2023-02-05T01:13:52;6.89;82.20
70830;SHT30;58451;51.550;7.208;2023-02-05T01:15:24;6.91;82.15
70830;SHT30;58451;51.550;7.208;2023-02-05T01:16:56;6.91;82.13
70830;SHT30;58451;51.550;7.208;2023-02-05T01:18:27;6.92;82.13
70830;SHT30;58451;51.550;7.208;2023-02-05T01:19:59;6.94;82.13
70830;SHT30;58451;51.550;7.208;2023-02-05T01:21:31;6.95;82.15
70830;SHT30;58451;51.550;7.208;2023-02-05T01:23:05;6.97;82.18
70830;SHT30;58451;51.550;7.208;2023-02-05T01:24:42;6.97;82.15
70830;SHT30;58451;51.550;7.208;2023-02-05T01:26:14;6.97;82.22
70830;SHT30;58451;51.550;7.208;2023-02-05T01:27:46;6.97;82.08
70830;SHT30;58451;51.550;7.208;2023-02-05T01:29:18;6.96;81.75
70830;SHT30;58451;51.550;7.208;2023-02-05T01:30:50;6.96;81.73
70830;SHT30;58451;51.550;7.208;2023-02-05T01:32:22;6.96;81.62
70830;SHT30;58451;51.550;7.208;2023-02-05T01:33:54;6.95;81.60
70830;SHT30;58451;51.550;7.208;2023-02-05T01:35:26;6.96;81.73
70830;SHT30;58451;51.550;7.208;2023-02-05T01:36:58;6.97;81.80
70830;SHT30;58451;51.550;7.208;2023-02-05T01:38:29;6.97;81.87
70830;SHT30;58451;51.550;7.208;2023-02-05T01:40:02;6.98;81.83
70830;SHT30;58451;51.550;7.208;2023-02-05T01:41:34;7.00;81.90
70830;SHT30;58451;51.550;7.208;2023-02-05T01:43:12;7.00;81.72
70830;SHT30;58451;51.550;7.208;2023-02-05T01:46:55;7.01;81.83
70830;SHT30;58451;51.550;7.208;2023-02-05T01:48:28;7.02;81.80
70830;SHT30;58451;51.550;7.208;2023-02-05T01:50:08;7.04;81.90
70830;SHT30;58451;51.550;7.208;2023-02-05T01:51:40;7.04;81.75
70830;SHT30;58451;51.550;7.208;2023-02-05T01:53:18;7.05;81.73
70830;SHT30;58451;51.550;7.208;2023-02-05T01:54:56;7.07;81.60
70830;SHT30;58451;51.550;7.208;2023-02-05T01:56:31;7.07;81.48
70830;SHT30;58451;51.550;7.208;2023-02-05T01:58:11;7.07;81.12
70830;SHT30;58451;51.550;7.208;2023-02-05T01:59:44;7.08;81.25
70830;SHT30;58451;51.550;7.208;2023-02-05T02:01:17;7.10;81.48
70830;SHT30;58451;51.550;7.208;2023-02-05T02:02:50;7.09;80.97
70830;SHT30;58451;51.550;7.208;2023-02-05T02:04:40;7.10;81.02
70830;SHT30;58451;51.550;7.208;2023-02-05T02:06:12;7.12;81.23
70830;SHT30;58451;51.550;7.208;2023-02-05T02:07:44;7.11;81.37
70830;SHT30;58451;51.550;7.208;2023-02-05T02:09:16;7.12;81.38
70830;SHT30;58451;51.550;7.208;2023-02-05T02:10:49;7.13;81.33
70830;SHT30;58451;51.550;7.208;2023-02-05T02:12:26;7.14;81.30
70830;SHT30;58451;51.550;7.208;2023-02-05T02:14:04;7.15;81.40
70830;SHT30;58451;51.550;7.208;2023-02-05T02:15:39;7.15;81.47
70830;SHT30;58451;51.550;7.208;2023-02-05T02:17:12;7.17;81.52
70830;SHT30;58451;51.550;7.208;2023-02-05T02:18:46;7.15;81.42
70830;SHT30;58451;51.550;7.208;2023-02-05T02:20:19;7.16;81.47
70830;SHT30;58451;51.550;7.208;2023-02-05T02:31:48;7.11;81.17
70830;SHT30;58451;51.550;7.208;2023-02-05T02:33:48;7.11;81.18
70830;SHT30;58451;51.550;7.208;2023-02-05T02:37:19;7.10;81.33
70830;SHT30;58451;51.550;7.208;2023-02-05T02:39:10;7.09;81.43
70830;SHT30;58451;51.550;7.208;2023-02-05T02:40:53;7.08;81.30
70830;SHT30;58451;51.550;7.208;2023-02-05T02:42:46;7.08;81.32
70830;SHT30;58451;51.550;7.208;2023-02-05T02:46:21;7.06;81.53
70830;SHT30;58451;51.550;7.208;2023-02-05T02:47:57;7.06;81.33
70830;SHT30;58451;51.550;7.208;2023-02-05T02:49:33;7.06;81.48
70830;SHT30;58451;51.550;7.208;2023-02-05T02:51:12;7.06;81.55
70830;SHT30;58451;51.550;7.208;2023-02-05T02:52:49;7.07;81.58
70830;SHT30;58451;51.550;7.208;2023-02-05T02:54:24;7.07;81.60
70830;SHT30;58451;51.550;7.208;2023-02-05T02:55:58;7.07;81.63
70830;SHT30;58451;51.550;7.208;2023-02-05T02:57:35;7.07;81.68
70830;SHT30;58451;51.550;7.208;2023-02-05T02:59:12;7.07;81.73
70830;SHT30;58451;51.550;7.208;2023-02-05T03:00:49;7.07;81.72
70830;SHT30;58451;51.550;7.208;2023-02-05T03:02:24;7.08;81.83
70830;SHT30;58451;51.550;7.208;2023-02-05T03:04:06;7.07;81.73
70830;SHT30;58451;51.550;7.208;2023-02-05T03:05:44;7.08;81.68
70830;SHT30;58451;51.550;7.208;2023-02-05T03:07:28;7.07;81.70
70830;SHT30;58451;51.550;7.208;2023-02-05T03:09:09;7.05;81.67
70830;SHT30;58451;51.550;7.208;2023-02-05T03:11:10;7.07;81.70
70830;SHT30;58451;51.550;7.208;2023-02-05T03:12:44;7.07;81.85
70830;SHT30;58451;51.550;7.208;2023-02-05T03:14:16;7.08;81.88
70830;SHT30;58451;51.550;7.208;2023-02-05T03:15:48;7.08;81.90
70830;SHT30;58451;51.550;7.208;2023-02-05T03:17:21;7.09;81.97
70830;SHT30;58451;51.550;7.208;2023-02-05T03:18:56;7.11;81.92
70830;SHT30;58451;51.550;7.208;2023-02-05T03:20:30;7.12;81.98
70830;SHT30;58451;51.550;7.208;2023-02-05T03:22:09;7.13;81.92
70830;SHT30;58451;51.550;7.208;2023-02-05T03:23:41;7.13;81.83
70830;SHT30;58451;51.550;7.208;2023-02-05T03:25:12;7.13;81.75
70830;SHT30;58451;51.550;7.208;2023-02-05T03:26:49;7.12;81.78
70830;SHT30;58451;51.550;7.208;2023-02-05T03:28:24;7.11;81.85
70830;SHT30;58451;51.550;7.208;2023-02-05T03:29:56;7.11;81.93
70830;SHT30;58451;51.550;7.208;2023-02-05T03:33:15;7.09;81.98
70830;SHT30;58451;51.550;7.208;2023-02-05T03:47:00;7.03;81.93
70830;SHT30;58451;51.550;7.208;2023-02-05T03:49:04;7.02;81.95
70830;SHT30;58451;51.550;7.208;2023-02-05T03:50:48;7.03;81.93
70830;SHT30;58451;51.550;7.208;2023-02-05T03:52:30;7.04;82.13
70830;SHT30;58451;51.550;7.208;2023-02-05T03:54:12;7.05;82.10
70830;SHT30;58451;51.550;7.208;2023-02-05T03:56:10;7.05;82.10
70830;SHT30;58451;51.550;7.208;2023-02-05T03:58:31;7.07;82.03
70830;SHT30;58451;51.550;7.208;2023-02-05T03:59:59;7.07;82.12
70830;SHT30;58451;51.550;7.208;2023-02-05T04:01:32;7.08;82.07
70830;SHT30;58451;51.550;7.208;2023-02-05T04:03:05;7.08;82.00
70830;SHT30;58451;51.550;7.208;2023-02-05T04:04:38;7.08;82.00
70830;SHT30;58451;51.550;7.208;2023-02-05T04:06:11;7.09;82.03
70830;SHT30;58451;51.550;7.208;2023-02-05T04:07:43;7.10;82.12
70830;SHT30;58451;51.550;7.208;2023-02-05T04:09:15;7.11;82.27
70830;SHT30;58451;51.550;7.208;2023-02-05T04:10:47;7.11;82.27
70830;SHT30;58451;51.550;7.208;2023-02-05T04:12:19;7.12;82.17
70830;SHT30;58451;51.550;7.208;2023-02-05T04:13:51;7.13;82.22
70830;SHT30;58451;51.550;7.208;2023-02-05T04:15:23;7.14;82.23
70830;SHT30;58451;51.550;7.208;2023-02-05T04:16:57;7.15;82.28
70830;SHT30;58451;51.550;7.208;2023-02-05T04:18:29;7.16;82.30
70830;SHT30;58451;51.550;7.208;2023-02-05T04:20:01;7.16;82.37
70830;SHT30;58451;51.550;7.208;2023-02-05T04:21:35;7.18;82.33
70830;SHT30;58451;51.550;7.208;2023-02-05T04:23:07;7.18;82.35
70830;SHT30;58451;51.550;7.208;2023-02-05T04:24:39;7.20;82.42
70830;SHT30;58451;51.550;7.208;2023-02-05T04:26:11;7.20;82.23
70830;SHT30;58451;51.550;7.208;2023-02-05T04:27:48;7.20;82.32
70830;SHT30;58451;51.550;7.208;2023-02-05T04:29:20;7.21;82.40
70830;SHT30;58451;51.550;7.208;2023-02-05T04:30:53;7.22;82.45
70830;SHT30;58451;51.550;7.208;2023-02-05T04:32:25;7.23;82.47
70830;SHT30;58451;51.550;7.208;2023-02-05T04:33:58;7.23;82.48
70830;SHT30;58451;51.550;7.208;2023-02-05T04:35:33;7.24;82.57
70830;SHT30;58451;51.550;7.208;2023-02-05T04:37:05;7.25;82.58
70830;SHT30;58451;51.550;7.208;2023-02-05T04:38:37;7.25;82.67
70830;SHT30;58451;51.550;7.208;2023-02-05T04:40:09;7.24;82.78
70830;SHT30;58451;51.550;7.208;2023-02-05T04:41:41;7.24;82.85
70830;SHT30;58451;51.550;7.208;2023-02-05T04:43:13;7.24;82.88
70830;SHT30;58451;51.550;7.208;2023-02-05T04:44:44;7.24;83.00
70830;SHT30;58451;51.550;7.208;2023-02-05T04:46:16;7.23;82.98
70830;SHT30;58451;51.550;7.208;2023-02-05T04:47:49;7.24;83.02
70830;SHT30;58451;51.550;7.208;2023-02-05T04:49:20;7.24;83.18
70830;SHT30;58451;51.550;7.208;2023-02-05T04:50:52;7.24;83.20
70830;SHT30;58451;51.550;7.208;2023-02-05T04:52:24;7.24;83.25
70830;SHT30;58451;51.550;7.208;2023-02-05T04:53:56;7.23;83.27
70830;SHT30;58451;51.550;7.208;2023-02-05T04:55:28;7.24;83.35
70830;SHT30;58451;51.550;7.208;2023-02-05T04:57:02;7.23;83.35
70830;SHT30;58451;51.550;7.208;2023-02-05T04:58:34;7.23;83.38
70830;SHT30;58451;51.550;7.208;2023-02-05T05:00:06;7.23;83.45
70830;SHT30;58451;51.550;7.208;2023-02-05T05:01:39;7.22;83.53
70830;SHT30;58451;51.550;7.208;2023-02-05T05:03:11;7.22;83.52
70830;SHT30;58451;51.550;7.208;2023-02-05T05:04:43;7.23;83.60
70830;SHT30;58451;51.550;7.208;2023-02-05T05:06:15;7.22;83.53
70830;SHT30;58451;51.550;7.208;2023-02-05T05:07:48;7.22;83.88
70830;SHT30;58451;51.550;7.208;2023-02-05T05:09:20;7.21;84.07
70830;SHT30;58451;51.550;7.208;2023-02-05T05:10:54;7.20;83.92
70830;SHT30;58451;51.550;7.208;2023-02-05T05:12:26;7.21;83.88
70830;SHT30;58451;51.550;7.208;2023-02-05T05:13:58;7.21;83.87
70830;SHT30;58451;51.550;7.208;2023-02-05T05:15:29;7.21;84.20
70830;SHT30;58451;51.550;7.208;2023-02-05T05:17:02;7.21;84.20
70830;SHT30;58451;51.550;7.208;2023-02-05T05:18:34;7.20;84.23
70830;SHT30;58451;51.550;7.208;2023-02-05T05:20:06;7.21;84.30
70830;SHT30;58451;51.550;7.208;2023-02-05T05:21:38;7.21;84.28
70830;SHT30;58451;51.550;7.208;2023-02-05T05:23:10;7.21;84.25
70830;SHT30;58451;51.550;7.208;2023-02-05T05:24:42;7.22;84.23
70830;SHT30;58451;51.550;7.208;2023-02-05T05:26:14;7.22;84.22
70830;SHT30;58451;51.550;7.208;2023-02-05T05:27:46;7.24;84.20
70830;SHT30;58451;51.550;7.208;2023-02-05T05:29:18;7.25;84.13
70830;SHT30;58451;51.550;7.208;2023-02-05T05:30:50;7.26;84.22
70830;SHT30;58451;51.550;7.208;2023-02-05T05:32:22;7.27;84.20
70830;SHT30;58451;51.550;7.208;2023-02-05T05:33:54;7.27;84.25
70830;SHT30;58451;51.550;7.208;2023-02-05T05:35:26;7.30;84.27
70830;SHT30;58451;51.550;7.208;2023-02-05T05:36:57;7.29;84.28
70830;SHT30;58451;51.550;7.208;2023-02-05T05:38:29;7.30;84.28
70830;SHT30;58451;51.550;7.208;2023-02-05T05:40:01;7.30;84.40
70830;SHT30;58451;51.550;7.208;2023-02-05T05:41:52;7.30;84.45
70830;SHT30;58451;51.550;7.208;2023-02-05T05:43:42;7.31;84.38
70830;SHT30;58451;51.550;7.208;2023-02-05T05:45:17;7.30;84.42
70830;SHT30;58451;51.550;7.208;2023-02-05T05:46:49;7.31;84.48
70830;SHT30;58451;51.550;7.208;2023-02-05T05:48:20;7.31;84.50
70830;SHT30;58451;51.550;7.208;2023-02-05T05:49:52;7.32;84.57
70830;SHT30;58451;51.550;7.208;2023-02-05T05:51:25;7.32;84.63
70830;SHT30;58451;51.550;7.208;2023-02-05T05:52:58;7.32;84.57
70830;SHT30;58451;51.550;7.208;2023-02-05T05:54:30;7.32;84.62
70830;SHT30;58451;51.550;7.208;2023-02-05T05:56:02;7.32;84.65
70830;SHT30;58451;51.550;7.208;2023-02-05T05:57:34;7.33;84.63
70830;SHT30;58451;51.550;7.208;2023-02-05T05:59:05;7.34;84.70
70830;SHT30;58451;51.550;7.208;2023-02-05T06:00:37;7.34;84.78
70830;SHT30;58451;51.550;7.208;2023-02-05T06:02:10;7.34;84.90
70830;SHT30;58451;51.550;7.208;2023-02-05T06:03:42;7.34;84.92
70830;SHT30;58451;51.550;7.208;2023-02-05T06:05:13;7.35;84.80
70830;SHT30;58451;51.550;7.208;2023-02-05T06:06:45;7.36;84.87
70830;SHT30;58451;51.550;7.208;2023-02-05T06:08:17;7.35;84.93
70830;SHT30;58451;51.550;7.208;2023-02-05T06:09:49;7.36;84.97
70830;SHT30;58451;51.550;7.208;2023-02-05T06:11:21;7.36;84.93
70830;SHT30;58451;51.550;7.208;2023-02-05T06:12:52;7.36;84.92
70830;SHT30;58451;51.550;7.208;2023-02-05T06:14:25;7.38;84.93
70830;SHT30;58451;51.550;7.208;2023-02-05T06:15:57;7.39;84.87
70830;SHT30;58451;51.550;7.208;2023-02-05T06:17:29;7.38;84.83
70830;SHT30;58451;51.550;7.208;2023-02-05T06:19:01;7.40;84.85
70830;SHT30;58451;51.550;7.208;2023-02-05T06:20:32;7.40;84.87
70830;SHT30;58451;51.550;7.208;2023-02-05T06:22:04;7.40;85.00
70830;SHT30;58451;51.550;7.208;2023-02-05T06:23:36;7.41;85.00
70830;SHT30;58451;51.550;7.208;2023-02-05T06:25:08;7.43;84.95
70830;SHT30;58451;51.550;7.208;2023-02-05T06:26:39;7.42;84.98
70830;SHT30;58451;51.550;7.208;2023-02-05T06:28:11;7.43;85.02
70830;SHT30;58451;51.550;7.208;2023-02-05T06:29:43;7.43;84.98
70830;SHT30;58451;51.550;7.208;2023-02-05T06:31:15;7.43;85.00
70830;SHT30;58451;51.550;7.208;2023-02-05T06:32:47;7.44;85.00
70830;SHT30;58451;51.550;7.208;2023-02-05T06:34:19;7.43;84.98
70830;SHT30;58451;51.550;7.208;2023-02-05T06:35:51;7.45;85.03
70830;SHT30;58451;51.550;7.208;2023-02-05T06:37:23;7.44;85.00
70830;SHT30;58451;51.550;7.208;2023-02-05T06:39:17;7.44;85.07
70830;SHT30;58451;51.550;7.208;2023-02-05T06:40:49;7.45;85.12
70830;SHT30;58451;51.550;7.208;2023-02-05T06:42:21;7.44;85.07
70830;SHT30;58451;51.550;7.208;2023-02-05T06:43:53;7.47;85.10
70830;SHT30;58451;51.550;7.208;2023-02-05T06:45:24;7.47;85.15
70830;SHT30;58451;51.550;7.208;2023-02-05T06:46:56;7.49;85.07
70830;SHT30;58451;51.550;7.208;2023-02-05T06:48:28;7.49;85.12
70830;SHT30;58451;51.550;7.208;2023-02-05T06:50:00;7.49;85.20
70830;SHT30;58451;51.550;7.208;2023-02-05T06:51:31;7.51;85.18
70830;SHT30;58451;51.550;7.208;2023-02-05T06:53:03;7.51;85.17
70830;SHT30;58451;51.550;7.208;2023-02-05T06:54:35;7.54;85.25
70830;SHT30;58451;51.550;7.208;2023-02-05T06:56:08;7.53;85.25
70830;SHT30;58451;51.550;7.208;2023-02-05T06:57:40;7.54;85.22
70830;SHT30;58451;51.550;7.208;2023-02-05T06:59:12;7.55;85.22
70830;SHT30;58451;51.550;7.208;2023-02-05T07:00:44;7.56;85.23
70830;SHT30;58451;51.550;7.208;2023-02-05T07:02:16;7.55;85.20
70830;SHT30;58451;51.550;7.208;2023-02-05T07:03:47;7.56;85.23
70830;SHT30;58451;51.550;7.208;2023-02-05T07:05:22;7.58;85.20
70830;SHT30;58451;51.550;7.208;2023-02-05T07:06:54;7.57;85.22
70830;SHT30;58451;51.550;7.208;2023-02-05T07:08:26;7.59;85.18
70830;SHT30;58451;51.550;7.208;2023-02-05T07:09:58;7.59;85.22
70830;SHT30;58451;51.550;7.208;2023-02-05T07:11:30;7.60;85.23
70830;SHT30;58451;51.550;7.208;2023-02-05T07:13:02;7.60;85.25
70830;SHT30;58451;51.550;7.208;2023-02-05T07:14:36;7.59;85.20
70830;SHT30;58451;51.550;7.208;2023-02-05T07:16:10;7.60;85.23
70830;SHT30;58451;51.550;7.208;2023-02-05T07:17:42;7.59;85.22
70830;SHT30;58451;51.550;7.208;2023-02-05T07:19:14;7.60;85.18
70830;SHT30;58451;51.550;7.208;2023-02-05T07:20:46;7.59;85.18
70830;SHT30;58451;51.550;7.208;2023-02-05T07:22:19;7.59;85.13
70830;SHT30;58451;51.550;7.208;2023-02-05T07:23:51;7.60;85.13
70830;SHT30;58451;51.550;7.208;2023-02-05T07:25:23;7.59;85.03
70830;SHT30;58451;51.550;7.208;2023-02-05T07:26:54;7.61;85.07
70830;SHT30;58451;51.550;7.208;2023-02-05T07:28:26;7.61;85.05
70830;SHT30;58451;51.550;7.208;2023-02-05T07:29:58;7.61;85.03
70830;SHT30;58451;51.550;7.208;2023-02-05T07:31:30;7.61;85.02
70830;SHT30;58451;51.550;7.208;2023-02-05T07:33:02;7.61;84.97
70830;SHT30;58451;51.550;7.208;2023-02-05T07:34:34;7.62;84.98
70830;SHT30;58451;51.550;7.208;2023-02-05T07:36:07;7.61;85.00
70830;SHT30;58451;51.550;7.208;2023-02-05T07:37:40;7.61;84.93
70830;SHT30;58451;51.550;7.208;2023-02-05T07:39:12;7.60;84.92
70830;SHT30;58451;51.550;7.208;2023-02-05T07:40:44;7.60;84.92
70830;SHT30;58451;51.550;7.208;2023-02-05T07:42:15;7.59;84.90
70830;SHT30;58451;51.550;7.208;2023-02-05T07:43:52;7.59;84.90
70830;SHT30;58451;51.550;7.208;2023-02-05T07:45:24;7.57;84.82
70830;SHT30;58451;51.550;7.208;2023-02-05T07:46:56;7.57;84.80
70830;SHT30;58451;51.550;7.208;2023-02-05T07:48:28;7.57;84.73
70830;SHT30;58451;51.550;7.208;2023-02-05T07:50:01;7.55;84.73
70830;SHT30;58451;51.550;7.208;2023-02-05T07:51:32;7.56;84.60
70830;SHT30;58451;51.550;7.208;2023-02-05T07:53:05;7.55;84.45
70830;SHT30;58451;51.550;7.208;2023-02-05T07:54:37;7.53;84.35
70830;SHT30;58451;51.550;7.208;2023-02-05T07:56:09;7.53;84.43
70830;SHT30;58451;51.550;7.208;2023-02-05T07:57:41;7.51;84.38
70830;SHT30;58451;51.550;7.208;2023-02-05T07:59:12;7.49;84.38
70830;SHT30;58451;51.550;7.208;2023-02-05T08:00:44;7.47;84.35
70830;SHT30;58451;51.550;7.208;2023-02-05T08:02:17;7.44;84.33
70830;SHT30;58451;51.550;7.208;2023-02-05T08:03:49;7.42;84.35
70830;SHT30;58451;51.550;7.208;2023-02-05T08:05:21;7.37;84.38
70830;SHT30;58451;51.550;7.208;2023-02-05T08:06:53;7.37;84.38
70830;SHT30;58451;51.550;7.208;2023-02-05T08:08:24;7.34;84.38
70830;SHT30;58451;51.550;7.208;2023-02-05T08:09:56;7.32;84.43
70830;SHT30;58451;51.550;7.208;2023-02-05T08:11:28;7.31;84.43
70830;SHT30;58451;51.550;7.208;2023-02-05T08:13:02;7.31;84.50
70830;SHT30;58451;51.550;7.208;2023-02-05T08:14:34;7.29;84.50
70830;SHT30;58451;51.550;7.208;2023-02-05T08:16:07;7.30;84.52
70830;SHT30;58451;51.550;7.208;2023-02-05T08:17:39;7.28;84.52
70830;SHT30;58451;51.550;7.208;2023-02-05T08:19:14;7.30;84.65
70830;SHT30;58451;51.550;7.208;2023-02-05T08:20:54;7.28;84.68
70830;SHT30;58451;51.550;7.208;2023-02-05T08:22:26;7.29;84.72
70830;SHT30;58451;51.550;7.208;2023-02-05T08:23:57;7.26;84.73
70830;SHT30;58451;51.550;7.208;2023-02-05T08:25:31;7.25;84.73
70830;SHT30;58451;51.550;7.208;2023-02-05T08:27:03;7.24;84.82
70830;SHT30;58451;51.550;7.208;2023-02-05T08:28:35;7.23;84.88
70830;SHT30;58451;51.550;7.208;2023-02-05T08:30:09;7.22;84.88
70830;SHT30;58451;51.550;7.208;2023-02-05T08:31:45;7.23;84.90
70830;SHT30;58451;51.550;7.208;2023-02-05T08:33:17;7.23;85.05
70830;SHT30;58451;51.550;7.208;2023-02-05T08:34:49;7.22;85.00
70830;SHT30;58451;51.550;7.208;2023-02-05T08:36:20;7.23;84.85
70830;SHT30;58451;51.550;7.208;2023-02-05T08:37:52;7.23;84.77
70830;SHT30;58451;51.550;7.208;2023-02-05T08:39:24;7.23;84.85
70830;SHT30;58451;51.550;7.208;2023-02-05T08:40:56;7.22;84.68
70830;SHT30;58451;51.550;7.208;2023-02-05T08:42:28;7.20;84.22
70830;SHT30;58451;51.550;7.208;2023-02-05T08:43:59;7.18;84.20
70830;SHT30;58451;51.550;7.208;2023-02-05T08:45:31;7.16;84.07
70830;SHT30;58451;51.550;7.208;2023-02-05T08:47:04;7.14;84.05
70830;SHT30;58451;51.550;7.208;2023-02-05T08:48:36;7.07;84.00
70830;SHT30;58451;51.550;7.208;2023-02-05T08:50:07;7.04;83.95
70830;SHT30;58451;51.550;7.208;2023-02-05T08:51:41;7.00;83.75
70830;SHT30;58451;51.550;7.208;2023-02-05T08:53:13;6.97;83.62
70830;SHT30;58451;51.550;7.208;2023-02-05T08:54:45;6.94;83.70
70830;SHT30;58451;51.550;7.208;2023-02-05T08:56:18;6.91;83.57
70830;SHT30;58451;51.550;7.208;2023-02-05T08:57:50;6.89;83.47
70830;SHT30;58451;51.550;7.208;2023-02-05T08:59:23;6.91;83.33
70830;SHT30;58451;51.550;7.208;2023-02-05T09:01:01;6.89;83.32
70830;SHT30;58451;51.550;7.208;2023-02-05T09:02:41;6.87;83.10
70830;SHT30;58451;51.550;7.208;2023-02-05T09:04:14;6.86;83.33
70830;SHT30;58451;51.550;7.208;2023-02-05T09:05:49;6.83;83.00
70830;SHT30;58451;51.550;7.208;2023-02-05T09:07:21;6.83;83.48
70830;SHT30;58451;51.550;7.208;2023-02-05T09:08:53;6.82;83.48
70830;SHT30;58451;51.550;7.208;2023-02-05T09:10:24;6.80;83.15
70830;SHT30;58451;51.550;7.208;2023-02-05T09:11:56;6.79;83.52
70830;SHT30;58451;51.550;7.208;2023-02-05T09:13:29;6.78;83.52
70830;SHT30;58451;51.550;7.208;2023-02-05T09:15:01;6.78;83.12
70830;SHT30;58451;51.550;7.208;2023-02-05T09:16:33;6.80;83.10
70830;SHT30;58451;51.550;7.208;2023-02-05T09:18:05;6.85;83.17
70830;SHT30;58451;51.550;7.208;2023-02-05T09:19:37;6.92;83.00
70830;SHT30;58451;51.550;7.208;2023-02-05T09:21:11;6.97;82.52
70830;SHT30;58451;51.550;7.208;2023-02-05T09:22:44;7.00;82.65
70830;SHT30;58451;51.550;7.208;2023-02-05T09:24:16;6.99;82.97
70830;SHT30;58451;51.550;7.208;2023-02-05T09:25:48;6.99;82.92
70830;SHT30;58451;51.550;7.208;2023-02-05T09:27:20;7.00;82.73
70830;SHT30;58451;51.550;7.208;2023-02-05T09:28:51;6.98;83.10
70830;SHT30;58451;51.550;7.208;2023-02-05T09:30:23;6.99;83.20
70830;SHT30;58451;51.550;7.208;2023-02-05T09:31:55;7.01;83.22
70830;SHT30;58451;51.550;7.208;2023-02-05T09:33:27;7.01;83.18
70830;SHT30;58451;51.550;7.208;2023-02-05T09:34:59;7.01;83.17
70830;SHT30;58451;51.550;7.208;2023-02-05T09:36:31;7.05;83.20
70830;SHT30;58451;51.550;7.208;2023-02-05T09:38:03;7.03;82.88
70830;SHT30;58451;51.550;7.208;2023-02-05T09:39:35;7.03;82.80
70830;SHT30;58451;51.550;7.208;2023-02-05T09:41:31;7.02;83.05
70830;SHT30;58451;51.550;7.208;2023-02-05T09:49:05;6.97;83.53
70830;SHT30;58451;51.550;7.208;2023-02-05T09:50:52;6.97;83.60
70830;SHT30;58451;51.550;7.208;2023-02-05T09:52:29;6.93;83.33
70830;SHT30;58451;51.550;7.208;2023-02-05T09:56:11;6.87;83.72
70830;SHT30;58451;51.550;7.208;2023-02-05T09:57:46;6.87;83.55
70830;SHT30;58451;51.550;7.208;2023-02-05T09:59:20;6.88;83.70
70830;SHT30;58451;51.550;7.208;2023-02-05T10:01:12;6.93;83.38
70830;SHT30;58451;51.550;7.208;2023-02-05T10:02:58;7.03;83.22
70830;SHT30;58451;51.550;7.208;2023-02-05T10:04:50;7.13;83.12
70830;SHT30;58451;51.550;7.208;2023-02-05T10:06:37;7.19;83.10
70830;SHT30;58451;51.550;7.208;2023-02-05T10:08:31;7.23;83.17
70830;SHT30;58451;51.550;7.208;2023-02-05T10:10:56;7.31;83.18
70830;SHT30;58451;51.550;7.208;2023-02-05T10:12:36;7.32;83.10
70830;SHT30;58451;51.550;7.208;2023-02-05T10:22:33;7.38;83.08
70830;SHT30;58451;51.550;7.208;2023-02-05T10:26:15;7.31;83.30
70830;SHT30;58451;51.550;7.208;2023-02-05T10:27:57;7.30;83.33
70830;SHT30;58451;51.550;7.208;2023-02-05T10:29:53;7.26;83.40
70830;SHT30;58451;51.550;7.208;2023-02-05T10:35:22;7.15;83.70
70830;SHT30;58451;51.550;7.208;2023-02-05T10:37:05;7.11;83.77
70830;SHT30;58451;51.550;7.208;2023-02-05T10:38:44;7.09;83.83
70830;SHT30;58451;51.550;7.208;2023-02-05T10:40:23;7.11;83.98
70830;SHT30;58451;51.550;7.208;2023-02-05T10:42:45;7.13;83.87
70830;SHT30;58451;51.550;7.208;2023-02-05T10:44:12;7.18;83.92
70830;SHT30;58451;51.550;7.208;2023-02-05T10:46:04;7.22;83.88
70830;SHT30;58451;51.550;7.208;2023-02-05T10:49:44;7.26;83.98
70830;SHT30;58451;51.550;7.208;2023-02-05T10:51:43;7.27;83.80
70830;SHT30;58451;51.550;7.208;2023-02-05T10:53:17;7.31;83.88
70830;SHT30;58451;51.550;7.208;2023-02-05T10:54:53;7.32;83.88
70830;SHT30;58451;51.550;7.208;2023-02-05T10:56:25;7.32;83.87
70830;SHT30;58451;51.550;7.208;2023-02-05T10:57:57;7.30;83.92
70830;SHT30;58451;51.550;7.208;2023-02-05T10:59:40;7.26;83.62